createdAt,value
2019-03-23T00:01:03.007Z,95.20
2019-03-23T00:05:20.174Z,95.00
2019-03-23T00:09:36.982Z,95.10
2019-03-23T00:13:53.694Z,95.10
2019-03-23T00:18:10.754Z,95.20
2019-03-23T00:22:27.544Z,95.20
2019-03-23T00:26:44.103Z,95.30
2019-03-23T00:31:00.730Z,95.30
2019-03-23T00:35:17.333Z,95.40
2019-03-23T00:39:34.129Z,95.40
2019-03-23T00:43:50.770Z,95.50
2019-03-23T00:48:07.292Z,95.60
2019-03-23T00:52:23.804Z,95.50
2019-03-23T00:56:40.317Z,95.40
2019-03-23T01:00:56.929Z,95.70
2019-03-23T01:05:14.190Z,95.60
2019-03-23T01:09:30.697Z,95.60
2019-03-23T01:13:47.210Z,95.60
2019-03-23T01:18:03.714Z,95.90
2019-03-23T01:22:20.231Z,95.70
2019-03-23T01:26:36.770Z,96.10
2019-03-23T01:30:53.564Z,95.80
2019-03-23T01:35:10.487Z,95.70
2019-03-23T01:39:27.009Z,95.60
2019-03-23T01:43:43.512Z,95.70
2019-03-23T01:48:00.011Z,95.80
2019-03-23T01:52:16.779Z,95.80
2019-03-23T01:56:33.381Z,95.90
2019-03-23T02:00:49.983Z,95.80
2019-03-23T02:05:07.227Z,95.80
2019-03-23T02:09:23.730Z,95.80
2019-03-23T02:13:40.253Z,95.90
2019-03-23T02:17:56.758Z,96.00
2019-03-23T02:22:14.109Z,95.90
2019-03-23T02:26:30.641Z,95.90
2019-03-23T02:30:47.125Z,96.00
2019-03-23T02:35:06.557Z,95.90
2019-03-23T02:39:23.345Z,95.80
2019-03-23T02:43:39.959Z,95.90
2019-03-23T02:47:56.504Z,96.40
2019-03-23T02:52:13.014Z,96.00
2019-03-23T02:56:29.512Z,96.00
2019-03-23T03:00:46.008Z,96.00
2019-03-23T03:05:06.059Z,96.00
2019-03-23T03:09:22.633Z,96.00
2019-03-23T03:13:39.939Z,96.10
2019-03-23T03:17:56.919Z,96.10
2019-03-23T03:22:13.682Z,96.10
2019-03-23T03:26:31.111Z,96.20
2019-03-23T03:30:47.664Z,96.30
2019-03-23T03:35:05.082Z,96.30
2019-03-23T03:39:21.638Z,96.20
2019-03-23T03:43:38.165Z,96.20
2019-03-23T03:47:55.234Z,96.40
2019-03-23T03:52:11.779Z,96.30
2019-03-23T03:56:28.655Z,96.20
2019-03-23T04:00:45.614Z,96.30
2019-03-23T04:05:05.099Z,96.30
2019-03-23T04:09:21.936Z,96.40
2019-03-23T04:13:38.559Z,96.30
2019-03-23T04:17:55.086Z,96.40
2019-03-23T04:22:11.599Z,96.40
2019-03-23T04:26:28.402Z,96.50
2019-03-23T04:30:45.432Z,96.50
2019-03-23T04:35:04.309Z,96.70
2019-03-23T04:39:20.891Z,96.80
2019-03-23T04:43:37.458Z,97.00
2019-03-23T04:47:54.382Z,97.20
2019-03-23T04:52:10.914Z,97.30
2019-03-23T04:56:27.479Z,96.90
2019-03-23T05:00:44.316Z,96.80
2019-03-23T05:05:00.952Z,96.70
2019-03-23T05:09:17.431Z,96.90
2019-03-23T05:13:34.310Z,97.00
2019-03-23T05:17:51.068Z,96.60
2019-03-23T05:22:09.874Z,96.60
2019-03-23T05:26:26.381Z,96.60
2019-03-23T05:30:42.878Z,96.70
2019-03-23T05:34:59.621Z,96.60
2019-03-23T05:39:16.107Z,96.60
2019-03-23T05:43:33.082Z,96.60
2019-03-23T05:47:50.088Z,96.60
2019-03-23T05:52:07.148Z,96.50
2019-03-23T05:56:23.835Z,96.50
2019-03-23T06:00:40.538Z,96.50
2019-03-23T06:04:57.521Z,96.50
2019-03-23T06:09:14.459Z,96.50
2019-03-23T06:13:31.058Z,96.50
2019-03-23T06:17:47.961Z,96.60
2019-03-23T06:22:04.591Z,96.60
2019-03-23T06:26:21.095Z,96.70
2019-03-23T06:30:37.619Z,96.80
2019-03-23T06:34:54.556Z,96.90
2019-03-23T06:39:11.034Z,97.20
2019-03-23T06:43:27.667Z,97.40
2019-03-23T06:47:44.157Z,97.30
2019-03-23T06:52:00.718Z,97.40
2019-03-23T06:56:17.275Z,97.50
2019-03-23T07:00:35.980Z,97.50
2019-03-23T07:04:52.499Z,97.60
2019-03-23T07:09:16.038Z,97.70
2019-03-23T07:13:38.485Z,97.90
2019-03-23T07:18:02.988Z,98.40
2019-03-23T07:22:19.755Z,98.10
2019-03-23T07:26:36.330Z,97.60
2019-03-23T07:30:52.915Z,97.70
2019-03-23T07:35:09.914Z,97.60
2019-03-23T07:39:29.166Z,97.40
2019-03-23T07:43:44.863Z,96.80
2019-03-23T07:48:02.257Z,96.50
2019-03-23T07:52:18.706Z,95.90
2019-03-23T07:56:35.252Z,94.40
2019-03-23T08:00:51.850Z,92.80
2019-03-23T08:05:08.896Z,90.70
2019-03-23T08:09:25.726Z,86.90
2019-03-23T08:13:42.382Z,84.10
2019-03-23T08:17:59.175Z,81.20
2019-03-23T08:22:15.729Z,76.70
2019-03-23T08:26:32.815Z,73.40
2019-03-23T08:30:49.357Z,71.30
2019-03-23T08:35:06.015Z,67.50
2019-03-23T08:39:22.577Z,65.40
2019-03-23T08:43:39.085Z,65.70
2019-03-23T08:47:55.830Z,63.70
2019-03-23T08:52:12.307Z,63.30
2019-03-23T08:56:28.822Z,61.50
2019-03-23T09:00:45.720Z,60.20
2019-03-23T09:05:04.456Z,60.10
2019-03-23T09:09:20.988Z,59.70
2019-03-23T09:13:40.749Z,57.10
2019-03-23T09:17:56.341Z,56.10
2019-03-23T09:22:12.929Z,56.50
2019-03-23T09:26:29.491Z,54.70
2019-03-23T09:30:46.459Z,54.10
2019-03-23T09:35:04.302Z,53.20
2019-03-23T09:39:20.922Z,53.90
2019-03-23T09:43:37.768Z,51.60
2019-03-23T09:47:54.304Z,49.80
2019-03-23T09:52:10.778Z,47.10
2019-03-23T09:56:27.312Z,47.80
2019-03-23T10:00:43.836Z,48.20
2019-03-23T10:05:00.368Z,47.20
2019-03-23T10:09:16.895Z,47.00
2019-03-23T10:13:33.388Z,47.10
2019-03-23T10:17:49.933Z,46.10
2019-03-23T10:22:06.507Z,44.70
2019-03-23T10:26:23.043Z,43.70
2019-03-23T10:30:39.489Z,42.40
2019-03-23T10:34:56.342Z,41.10
2019-03-23T10:39:14.802Z,41.50
2019-03-23T10:43:31.355Z,41.30
2019-03-23T10:47:48.248Z,41.70
2019-03-23T10:52:05.192Z,40.80
2019-03-23T10:56:21.709Z,40.80
2019-03-23T11:00:38.222Z,40.30
2019-03-23T11:04:54.727Z,39.50
2019-03-23T11:09:11.252Z,40.40
2019-03-23T11:13:27.769Z,39.70
2019-03-23T11:17:44.660Z,39.70
2019-03-23T11:22:01.219Z,39.70
2019-03-23T11:26:17.731Z,39.10
2019-03-23T11:30:34.179Z,38.40
2019-03-23T11:34:50.776Z,38.30
2019-03-23T11:39:07.269Z,38.60
2019-03-23T11:43:23.811Z,38.80
2019-03-23T11:47:40.419Z,38.30
2019-03-23T11:51:58.093Z,38.50
2019-03-23T11:56:15.139Z,38.70
2019-03-23T12:00:40.746Z,38.00
2019-03-23T12:04:59.589Z,37.10
2019-03-23T12:09:16.177Z,36.90
2019-03-23T12:13:32.727Z,37.00
2019-03-23T12:17:49.236Z,37.30
2019-03-23T12:22:05.825Z,37.20
2019-03-23T12:26:24.604Z,38.10
2019-03-23T12:30:41.046Z,37.60
2019-03-23T12:34:57.548Z,37.30
2019-03-23T12:39:16.239Z,37.10
2019-03-23T12:43:32.841Z,36.10
2019-03-23T12:47:49.366Z,33.90
2019-03-23T12:52:07.010Z,31.80
2019-03-23T12:56:23.515Z,29.80
2019-03-23T13:00:40.053Z,28.80
2019-03-23T13:04:56.530Z,28.90
2019-03-23T13:09:13.329Z,27.70
2019-03-23T13:13:29.961Z,27.30
2019-03-23T13:17:46.837Z,27.90
2019-03-23T13:22:03.318Z,27.40
2019-03-23T13:26:19.881Z,28.30
2019-03-23T13:30:36.891Z,27.60
2019-03-23T13:34:53.622Z,28.30
2019-03-23T13:39:10.201Z,27.60
2019-03-23T13:43:26.760Z,27.90
2019-03-23T13:47:43.524Z,28.30
2019-03-23T13:52:01.777Z,29.60
2019-03-23T13:56:18.518Z,32.80
2019-03-23T14:00:35.335Z,35.70
2019-03-23T14:04:52.142Z,36.40
2019-03-23T14:09:08.980Z,38.00
2019-03-23T14:13:25.497Z,39.00
2019-03-23T14:17:42.299Z,40.10
2019-03-23T14:21:58.820Z,40.30
2019-03-23T14:26:15.375Z,40.90
2019-03-23T14:30:32.311Z,41.10
2019-03-23T14:34:49.211Z,41.30
2019-03-23T14:39:06.499Z,41.50
2019-03-23T14:43:23.068Z,42.10
2019-03-23T14:47:39.568Z,42.40
2019-03-23T14:51:56.074Z,42.70
2019-03-23T14:56:12.602Z,43.20
2019-03-23T15:00:31.685Z,43.10
2019-03-23T15:04:48.474Z,43.00
2019-03-23T15:09:05.574Z,43.70
2019-03-23T15:13:22.045Z,44.10
2019-03-23T15:17:48.222Z,43.70
2019-03-23T15:21:57.016Z,44.40
2019-03-23T15:26:13.553Z,44.50
2019-03-23T15:30:30.464Z,44.70
2019-03-23T15:34:47.773Z,48.20
2019-03-23T15:39:07.016Z,50.70
2019-03-23T15:43:23.604Z,52.10
2019-03-23T15:47:40.427Z,52.80
2019-03-23T15:51:56.942Z,53.60
2019-03-23T15:56:13.480Z,56.00
2019-03-23T16:00:30.206Z,57.50
2019-03-23T16:04:46.705Z,58.80
2019-03-23T16:09:08.832Z,60.00
2019-03-23T16:13:25.725Z,61.20
2019-03-23T16:17:42.284Z,61.90
2019-03-23T16:21:58.784Z,62.60
2019-03-23T16:26:15.296Z,63.40
2019-03-23T16:30:32.477Z,63.30
2019-03-23T16:34:48.971Z,63.60
2019-03-23T16:39:05.728Z,63.40
2019-03-23T16:43:22.373Z,64.30
2019-03-23T16:47:38.921Z,64.30
2019-03-23T16:51:55.444Z,65.60
2019-03-23T16:56:11.950Z,66.70
2019-03-23T17:00:34.123Z,65.60
2019-03-23T17:04:50.614Z,66.80
2019-03-23T17:09:07.130Z,68.00
2019-03-23T17:13:24.808Z,69.20
2019-03-23T17:17:41.705Z,70.90
2019-03-23T17:21:58.237Z,72.40
2019-03-23T17:26:14.741Z,73.60
2019-03-23T17:30:31.353Z,75.60
2019-03-23T17:34:48.094Z,75.70
2019-03-23T17:39:05.308Z,76.00
2019-03-23T17:43:21.909Z,76.50
2019-03-23T17:47:47.800Z,77.40
2019-03-23T17:52:07.545Z,78.40
2019-03-23T17:56:26.315Z,79.20
2019-03-23T18:00:44.820Z,79.60
2019-03-23T18:05:06.575Z,80.50
2019-03-23T18:09:23.227Z,81.20
2019-03-23T18:13:45.578Z,82.40
2019-03-23T18:18:02.431Z,83.00
2019-03-23T18:22:18.919Z,83.50
2019-03-23T18:26:35.451Z,83.80
2019-03-23T18:30:52.401Z,85.40
2019-03-23T18:35:09.087Z,86.40
2019-03-23T18:39:25.728Z,86.80
2019-03-23T18:43:45.219Z,87.50
2019-03-23T18:48:02.131Z,88.20
2019-03-23T18:52:20.695Z,88.70
2019-03-23T18:56:37.248Z,89.00
2019-03-23T19:00:53.792Z,89.40
2019-03-23T19:05:10.665Z,90.00
2019-03-23T19:09:27.242Z,90.50
2019-03-23T19:13:43.774Z,90.30
2019-03-23T19:18:00.698Z,90.60
2019-03-23T19:22:17.352Z,90.90
2019-03-23T19:26:34.131Z,91.40
2019-03-23T19:30:50.781Z,91.40
2019-03-23T19:35:07.751Z,91.80
2019-03-23T19:39:25.279Z,91.80
2019-03-23T19:43:48.634Z,92.10
2019-03-23T19:48:00.807Z,92.20
2019-03-23T19:52:17.957Z,92.20
2019-03-23T19:56:34.623Z,92.70
2019-03-23T20:00:51.501Z,92.50
2019-03-23T20:05:08.500Z,92.60
2019-03-23T20:09:26.307Z,92.90
2019-03-23T20:13:42.978Z,93.10
2019-03-23T20:17:59.738Z,93.20
2019-03-23T20:22:16.593Z,93.30
2019-03-23T20:26:33.510Z,93.10
2019-03-23T20:30:50.530Z,93.20
2019-03-23T20:35:07.836Z,93.10
2019-03-23T20:39:24.657Z,93.20
2019-03-23T20:43:41.263Z,93.30
2019-03-23T20:47:58.448Z,93.50
2019-03-23T20:52:15.328Z,93.60
2019-03-23T20:56:32.020Z,93.30
2019-03-23T21:00:51.184Z,93.30
2019-03-23T21:05:08.164Z,93.20
2019-03-23T21:09:24.624Z,93.20
2019-03-23T21:13:41.450Z,93.40
2019-03-23T21:17:58.354Z,93.40
2019-03-23T21:22:14.887Z,93.40
2019-03-23T21:26:31.820Z,93.40
2019-03-23T21:30:48.477Z,93.70
2019-03-23T21:35:05.662Z,93.40
2019-03-23T21:39:22.296Z,93.30
2019-03-23T21:43:39.218Z,93.10
2019-03-23T21:47:55.762Z,93.20
2019-03-23T21:52:12.380Z,92.80
2019-03-23T21:56:28.889Z,92.70
2019-03-23T22:00:45.418Z,92.70
2019-03-23T22:05:03.112Z,92.60
2019-03-23T22:09:19.645Z,92.70
2019-03-23T22:13:36.186Z,92.60
2019-03-23T22:17:52.693Z,92.60
2019-03-23T22:22:09.214Z,92.50
2019-03-23T22:26:25.800Z,92.80
2019-03-23T22:30:42.501Z,92.80
2019-03-23T22:34:59.153Z,92.80
2019-03-23T22:39:15.834Z,92.80
2019-03-23T22:43:32.403Z,92.70
2019-03-23T22:47:49.091Z,92.70
2019-03-23T22:52:05.642Z,92.60
2019-03-23T22:56:22.295Z,92.60
2019-03-23T23:00:40.780Z,92.60
2019-03-23T23:04:57.435Z,92.60
2019-03-23T23:09:13.933Z,92.50
2019-03-23T23:13:30.567Z,92.50
2019-03-23T23:17:47.097Z,92.60
2019-03-23T23:22:03.676Z,92.60
2019-03-23T23:26:20.601Z,92.60
2019-03-23T23:30:37.431Z,92.70
2019-03-23T23:34:53.937Z,92.70
2019-03-23T23:39:10.468Z,92.80
2019-03-23T23:43:28.109Z,92.60
2019-03-23T23:47:45.135Z,92.60
2019-03-23T23:52:01.642Z,92.70
2019-03-23T23:56:18.612Z,92.50
